• Join FlightAware (Why Join?)
  • Login
  • US Flag 
Rudolph Flight #1: Arrived! 
09:21AM EST


 

Airport Tracker/Info


-or-


 

Live Flight TrackerFlight Track Log ✈ TAM8014 ✈ 05-Sep-2014 ✈ SBGR / GRU - SABE / AEP

Flight Track Log - Related Links

Times and Time Zones

All times are in EDT time to prevent confusion due to time zone crossing. See the TAM8014 flight status page for this flight to view local times or setup timezone preferences in your user account.

Time Position Orientation Groundspeed Altitude Reporting Facility
EDT Latitude Longitude Course Direction KTS MPH feet Rate Location/Type
06:23AM -23.4223 -46.4370 74° East 169 194 3,400  Level FlightAware ADS-B (SBSP / CGH)
06:23AM -23.4186 -46.4240 72° East 177 204 3,800 1,500 Climbing FlightAware ADS-B (SBSP / CGH)
06:23AM -23.4146 -46.4109 70° East 186 214 4,200 2,100 Climbing FlightAware ADS-B (SBSP / CGH)
06:24AM -23.4062 -46.3844 70° East 190 219 5,400 2,400 Climbing FlightAware ADS-B (SBSP / CGH)
06:24AM -23.4033 -46.3701 88° East 192 221 6,000 2,220 Climbing FlightAware ADS-B (SBSP / CGH)
06:24AM -23.4113 -46.3526 136° Southeast 203 234 6,700 1,980 Climbing FlightAware ADS-B (SBSP / CGH)
06:24AM -23.4293 -46.3453 172° South 222 255 7,300 1,320 Climbing FlightAware ADS-B (SBSP / CGH)
06:25AM -23.4460 -46.3472 197° South 254 292 7,500 1,260 Climbing FlightAware ADS-B (SBSP / CGH)
06:25AM -23.4717 -46.3678 222° Southwest 287 330 8,200 2,160 Climbing FlightAware ADS-B (SBSP / CGH)
06:26AM -23.5000 -46.3985 228° Southwest 292 336 9,500 2,460 Climbing FlightAware ADS-B (SBSP / CGH)
06:26AM -23.5279 -46.4308 227° Southwest 298 343 10,700 1,800 Climbing FlightAware ADS-B (SBSP / CGH)
06:27AM -23.5578 -46.4654 227° Southwest 326 375 11,300 1,200 Climbing FlightAware ADS-B (SBSP / CGH)
06:27AM -23.5897 -46.5025 228° Southwest 349 402 11,900 1,560 Climbing FlightAware ADS-B (SBSP / CGH)
06:28AM -23.6227 -46.5411 228° Southwest 355 409 12,900 2,160 Climbing FlightAware ADS-B (SBSP / CGH)
06:28AM -23.6573 -46.5817 228° Southwest 357 411 14,100 2,400 Climbing FlightAware ADS-B (SBSP / CGH)
06:29AM -23.6912 -46.6213 228° Southwest 356 410 15,300 2,100 Climbing FlightAware ADS-B (SBSP / CGH)
06:29AM -23.7257 -46.6616 228° Southwest 362 417 16,200 1,860 Climbing FlightAware ADS-B (SBSP / CGH)
06:30AM -23.7597 -46.7014 228° Southwest 365 420 17,200 1,860 Climbing FlightAware ADS-B (SBSP / CGH)
06:30AM -23.7952 -46.7430 228° Southwest 370 426 18,100 1,800 Climbing FlightAware ADS-B (SBSP / CGH)
06:31AM -23.8274 -46.7806 228° Southwest 373 429 19,000 1,680 Climbing FlightAware ADS-B (SBSP / CGH)
06:32AM -23.9014 -46.8674 228° Southwest 382 440 20,700 1,560 Climbing FlightAware ADS-B (SBSP / CGH)
06:32AM -23.9382 -46.9106 228° Southwest 389 448 21,400 1,380 Climbing FlightAware ADS-B (SBSP / CGH)
06:33AM -23.9755 -46.9545 228° Southwest 395 455 22,100 1,260 Climbing FlightAware ADS-B (SBSP / CGH)
06:33AM -24.0134 -46.9991 228° Southwest 402 463 22,700 1,080 Climbing FlightAware ADS-B (SBSP / CGH)
06:34AM -24.0518 -47.0445 228° Southwest 411 473 23,200 960 Climbing FlightAware ADS-B (SBSP / CGH)
06:34AM -24.0905 -47.0901 228° Southwest 417 480 23,700 1,200 Climbing FlightAware ADS-B (SBSP / CGH)
06:35AM -24.1296 -47.1361 228° Southwest 421 484 24,400 1,560 Climbing FlightAware ADS-B (SBSP / CGH)
06:35AM -24.1718 -47.1821 223° Southwest 416 479 25,300 1,620 Climbing FlightAware ADS-B (SBSP / CGH)
06:36AM -24.2145 -47.2239 222° Southwest 415 478 26,000 1,380 Climbing FlightAware ADS-B (SBSP / CGH)
06:36AM -24.2561 -47.2648 223° Southwest 412 474 26,700 1,200 Climbing FlightAware ADS-B (SBSP / CGH)
06:37AM -24.2982 -47.3062 223° Southwest 416 479 27,200 960 Climbing FlightAware ADS-B (SBSP / CGH)
06:37AM -24.3423 -47.3496 223° Southwest 420 483 27,700 960 Climbing FlightAware ADS-B (SBSP / CGH)
06:38AM -24.3865 -47.3931 223° Southwest 424 488 28,200 1,080 Climbing FlightAware ADS-B (SBSP / CGH)
06:38AM -24.4302 -47.4364 223° Southwest 423 487 28,800 1,200 Climbing FlightAware ADS-B (SBSP / CGH)
06:39AM -24.4738 -47.4794 223° Southwest 421 484 29,400 960 Climbing FlightAware ADS-B (SBSP / CGH)
06:39AM -24.5112 -47.5164 223° Southwest 424 488 29,700 1,200 Climbing FlightAware ADS-B (SBSP / CGH)
06:40AM -24.5664 -47.5709 223° Southwest 416 479 30,700 1,380 Climbing FlightAware ADS-B (SDAM)
06:40AM -24.6091 -47.6133 223° Southwest 414 476 31,300 900 Climbing FlightAware ADS-B (SDAM)
06:41AM -24.6518 -47.6558 223° Southwest 417 480 31,600 780 Climbing FlightAware ADS-B (SDAM)
06:41AM -24.6954 -47.6990 223° Southwest 417 480 32,100 1,080 Climbing FlightAware ADS-B (SDAM)
06:42AM -24.7379 -47.7410 222° Southwest 414 476 32,700 1,260 Climbing FlightAware ADS-B (SDAM)
06:42AM -24.7814 -47.7837 222° Southwest 409 471 33,400 900 Climbing FlightAware ADS-B (SDAM)
06:43AM -24.8240 -47.8256 223° Southwest 413 475 33,600 480 Climbing FlightAware ADS-B (SDAM)
06:43AM -24.8664 -47.8674 222° Southwest 412 474 33,900 360 Climbing FlightAware ADS-B (SDAM)
06:44AM -24.9088 -47.9092 223° Southwest 406 467 34,000 60 Climbing FlightAware ADS-B (SDAM)
06:44AM -24.9506 -47.9504 222° Southwest 407 468 34,000  Level FlightAware ADS-B (SDAM)
06:45AM -24.9939 -47.9931 222° Southwest 411 473 34,000  Level FlightAware ADS-B (SDAM)
06:45AM -25.0363 -48.0349 222° Southwest 414 476 34,000  Level FlightAware ADS-B (SDAM)
06:46AM -25.0797 -48.0779 223° Southwest 416 479 34,000  Level FlightAware ADS-B (SDAM)
06:46AM -25.1233 -48.1211 222° Southwest 418 481 34,000  Level FlightAware ADS-B (SDAM)
06:47AM -25.1657 -48.1629 222° Southwest 418 481 34,000  Level FlightAware ADS-B (SDAM)
06:47AM -25.2103 -48.2072 222° Southwest 418 481 34,000  Level FlightAware ADS-B (SDAM)
06:48AM -25.2475 -48.2441 222° Southwest 418 481 34,000  Level FlightAware ADS-B (SDAM)
06:48AM -25.2969 -48.2933 223° Southwest 417 480 34,000  Level FlightAware ADS-B (SDAM)
06:49AM -25.3566 -48.3528 223° Southwest 415 478 34,000  Level FlightAware ADS-B (SBBI / BFH)
06:49AM -25.3997 -48.3956 223° Southwest 414 476 34,000  Level FlightAware ADS-B (SBBI / BFH)
06:50AM -25.4411 -48.4370 223° Southwest 412 474 34,000  Level FlightAware ADS-B (SBBI / BFH)
06:50AM -25.4816 -48.4776 223° Southwest 413 475 34,000  Level FlightAware ADS-B (SBBI / BFH)
06:51AM -25.5249 -48.5206 223° Southwest 413 475 34,000  Level FlightAware ADS-B (SBBI / BFH)
06:52AM -25.6007 -48.5888 219° Southwest 414 476 34,000  Level FlightAware ADS-B (SBBI / BFH)
06:52AM -25.6451 -48.6282 219° Southwest 413 475 34,000  Level FlightAware ADS-B (SBBI / BFH)
06:53AM -25.6909 -48.6689 219° Southwest 413 475 34,000  Level FlightAware ADS-B (SBBI / BFH)
06:53AM -25.7351 -48.7081 219° Southwest 414 476 34,000  Level FlightAware ADS-B (SBBI / BFH)
06:54AM -25.7786 -48.7467 219° Southwest 414 476 34,000  Level FlightAware ADS-B (SBBI / BFH)
06:54AM -25.8245 -48.7875 219° Southwest 413 475 34,000  Level FlightAware ADS-B (SBBI / BFH)
06:55AM -25.8705 -48.8284 219° Southwest 414 476 34,000  Level FlightAware ADS-B (SBBI / BFH)
06:55AM -25.9148 -48.8680 220° Southwest 413 475 34,000  Level FlightAware ADS-B (SBBI / BFH)
06:56AM -25.9595 -48.9081 220° Southwest 410 472 34,000  Level FlightAware ADS-B (SBBI / BFH)
06:56AM -26.0036 -48.9478 220° Southwest 410 472 34,000  Level FlightAware ADS-B (SBBI / BFH)
06:57AM -26.0484 -48.9882 220° Southwest 410 472 34,000  Level FlightAware ADS-B (SBBI / BFH)
06:57AM -26.0925 -49.0278 220° Southwest 410 472 34,000  Level FlightAware ADS-B (SBBI / BFH)
06:58AM -26.1370 -49.0677 219° Southwest 411 473 34,000  Level FlightAware ADS-B (SBBI / BFH)
06:58AM -26.1818 -49.1080 219° Southwest 411 473 34,000  Level FlightAware ADS-B (SBBI / BFH)
06:59AM -26.2252 -49.1470 219° Southwest 411 473 34,000  Level FlightAware ADS-B (SBBI / BFH)
06:59AM -26.2688 -49.1863 220° Southwest 410 472 34,000  Level FlightAware ADS-B (SBBI / BFH)
07:00AM -26.3142 -49.2271 220° Southwest 410 472 34,000  Level FlightAware ADS-B (SBBI / BFH)
07:00AM -26.3594 -49.2679 220° Southwest 410 472 34,000  Level FlightAware ADS-B (SBBI / BFH)
07:01AM -26.3859 -49.2918 219° Southwest 411 473 34,000  Level FlightAware ADS-B (SBFL / FLN)
07:01AM -26.4440 -49.3443 219° Southwest 410 472 34,000  Level FlightAware ADS-B (SBFL / FLN)
07:02AM -26.4968 -49.3920 219° Southwest 409 471 34,000  Level FlightAware ADS-B (SBFL / FLN)
07:02AM -26.5261 -49.4186 220° Southwest 407 468 34,000  Level FlightAware ADS-B (SBBI / BFH)
07:03AM -26.5648 -49.4538 219° Southwest 407 468 34,000  Level FlightAware ADS-B (SBFL / FLN)
07:03AM -26.6157 -49.5000 220° Southwest 405 466 34,000  Level FlightAware ADS-B (SBBI / BFH)
07:04AM -26.6584 -49.5387 220° Southwest 402 463 34,000  Level FlightAware ADS-B (SBBI / BFH)
07:04AM -26.7013 -49.5779 220° Southwest 401 461 34,000  Level FlightAware ADS-B (SBBI / BFH)
07:05AM -26.7390 -49.6120 219° Southwest 401 461 34,000  Level FlightAware ADS-B (SBFL / FLN)
07:05AM -26.7892 -49.6578 220° Southwest 399 459 34,000  Level FlightAware ADS-B (SBBI / BFH)
07:06AM -26.8321 -49.6969 220° Southwest 399 459 34,000  Level FlightAware ADS-B (SBBI / BFH)
07:07AM -26.9165 -49.7741 220° Southwest 399 459 34,000  Level FlightAware ADS-B (SBBI / BFH)
07:07AM -26.9602 -49.8141 220° Southwest 400 460 34,000  Level FlightAware ADS-B (SBBI / BFH)
07:08AM -27.0012 -49.8516 220° Southwest 402 463 34,000  Level FlightAware ADS-B (SBBI / BFH)
07:08AM -27.0276 -49.8758 220° Southwest 402 463 34,000  Level FlightAware ADS-B (SBBI / BFH)
07:10AM -27.1979 -50.0322 220° Southwest 402 463 34,000  Level FlightAware ADS-B (SBBI / BFH)
07:12AM -27.3437 -50.1814 222° Southwest  Level Estimated
07:13AM -27.4338 -50.2739 222° Southwest  Level Estimated
07:14AM -27.5239 -50.3665 222° Southwest  Level Estimated
07:15AM -27.6138 -50.4593 222° Southwest  Level Estimated
07:16AM -27.7038 -50.5523 222° Southwest  Level Estimated
07:17AM -27.7936 -50.6454 222° Southwest  Level Estimated
07:18AM -27.8834 -50.7386 223° Southwest  Level Estimated
07:19AM -27.9731 -50.8320 223° Southwest  Level Estimated
07:20AM -28.0628 -50.9256 223° Southwest  Level Estimated
07:21AM -28.1524 -51.0193 223° Southwest  Level Estimated
07:22AM -28.2419 -51.1132 223° Southwest  Level Estimated
07:23AM -28.3314 -51.2072 223° Southwest  Level Estimated
07:24AM -28.4208 -51.3014 223° Southwest  Level Estimated
07:25AM -28.5101 -51.3957 223° Southwest  Level Estimated
07:26AM -28.5994 -51.4902 223° Southwest  Level Estimated
07:27AM -28.6886 -51.5849 223° Southwest  Level Estimated
07:28AM -28.7778 -51.6797 223° Southwest  Level Estimated
07:29AM -28.8668 -51.7747 223° Southwest  Level Estimated
07:30AM -28.9558 -51.8699 223° Southwest  Level Estimated
07:31AM -29.0448 -51.9652 223° Southwest  Level Estimated
07:32AM -29.1337 -52.0607 223° Southwest  Level Estimated
07:33AM -29.2225 -52.1564 223° Southwest  Level Estimated
07:34AM -29.3112 -52.2522 223° Southwest  Level Estimated
07:35AM -29.3999 -52.3481 223° Southwest  Level Estimated
07:36AM -29.4885 -52.4443 223° Southwest  Level Estimated
07:37AM -29.5770 -52.5406 223° Southwest  Level Estimated
07:38AM -29.6655 -52.6371 223° Southwest  Level Estimated
07:39AM -29.7539 -52.7338 223° Southwest  Level Estimated
07:40AM -29.8422 -52.8306 224° Southwest  Level Estimated
07:41AM -29.9305 -52.9276 224° Southwest  Level Estimated
07:42AM -30.0186 -53.0248 224° Southwest  Level Estimated
07:43AM -30.1068 -53.1221 224° Southwest  Level Estimated
07:44AM -30.1948 -53.2196 224° Southwest  Level Estimated
07:45AM -30.2828 -53.3173 224° Southwest  Level Estimated
07:46AM -30.3706 -53.4152 224° Southwest  Level Estimated
07:47AM -30.4585 -53.5132 224° Southwest  Level Estimated
07:48AM -30.5462 -53.6115 224° Southwest  Level Estimated
07:49AM -30.6339 -53.7098 224° Southwest  Level Estimated
07:50AM -30.7215 -53.8084 224° Southwest  Level Estimated
07:51AM -30.8090 -53.9072 224° Southwest  Level Estimated
07:52AM -30.8965 -54.0061 224° Southwest  Level Estimated
07:53AM -30.9838 -54.1052 224° Southwest  Level Estimated
07:54AM -31.0711 -54.2045 224° Southwest  Level Estimated
07:55AM -31.1584 -54.3040 224° Southwest  Level Estimated
07:56AM -31.2455 -54.4037 224° Southwest  Level Estimated
07:57AM -31.3326 -54.5035 224° Southwest  Level Estimated
07:58AM -31.4196 -54.6035 224° Southwest  Level Estimated
07:59AM -31.5065 -54.7038 224° Southwest  Level Estimated
08:00AM -31.5933 -54.8042 225° Southwest  Level Estimated
08:01AM -31.6801 -54.9048 225° Southwest  Level Estimated
08:02AM -31.7668 -55.0055 225° Southwest  Level Estimated
08:03AM -31.8533 -55.1065 225° Southwest  Level Estimated
08:04AM -31.9399 -55.2077 225° Southwest  Level Estimated
08:05AM -32.0263 -55.3090 225° Southwest  Level Estimated
08:06AM -32.1127 -55.4105 225° Southwest  Level Estimated
08:07AM -32.1989 -55.5123 225° Southwest  Level Estimated
08:08AM -32.2851 -55.6142 225° Southwest  Level Estimated
08:09AM -32.3712 -55.7163 225° Southwest  Level Estimated
08:10AM -32.4573 -55.8186 225° Southwest  Level Estimated
08:11AM -32.5432 -55.9212 225° Southwest  Level Estimated
08:12AM -32.6291 -56.0239 225° Southwest  Level Estimated
08:13AM -32.7149 -56.1268 225° Southwest  Level Estimated
08:14AM -32.8006 -56.2299 225° Southwest  Level Estimated
08:15AM -32.8862 -56.3332 225° Southwest  Level Estimated
08:16AM -32.9717 -56.4367 225° Southwest  Level Estimated
08:17AM -33.0571 -56.5404 225° Southwest  Level Estimated
08:18AM -33.1425 -56.6443 226° Southwest  Level Estimated
08:19AM -33.2278 -56.7484 226° Southwest  Level Estimated
08:20AM -33.3129 -56.8527 226° Southwest  Level Estimated
08:21AM -33.3980 -56.9572 226° Southwest  Level Estimated
08:22AM -33.4830 -57.0619 226° Southwest  Level Estimated
08:23AM -33.5680 -57.1668 226° Southwest  Level Estimated
08:24AM -33.6528 -57.2719 226° Southwest  Level Estimated
08:25AM -33.7375 -57.3773 226° Southwest  Level Estimated
08:26AM -33.8222 -57.4828 226° Southwest  Level Estimated
08:27AM -33.9067 -57.5886 226° Southwest  Level Estimated
08:28AM -33.9912 -57.6945 226° Southwest  Level Estimated
08:29AM -34.0756 -57.8007 226° Southwest  Level Estimated
08:30AM -34.1599 -57.9071 226° Southwest  Level Estimated
08:31AM -34.2441 -58.0137 226° Southwest  Level Estimated
08:32AM -34.3282 -58.1205 226° Southwest  Level Estimated
08:33AM -34.4122 -58.2275 226° Southwest  Level Estimated
08:34AM -34.4961 -58.3348 226° Southwest  Level Estimated
08:35AM -34.5592 -58.4156 227° Southwest  Level Estimated
08:36AM -34.5592 -58.4156 North  Level Estimated
08:37AM -34.5592 -58.4156 North  Level Estimated
08:38AM -34.5592 -58.4156 North  Level Estimated
08:39AM -34.5592 -58.4156 North  Level Estimated
08:40AM -34.5592 -58.4156 North  Level Estimated
08:41AM -34.5592 -58.4156 North  Level Estimated
08:42AM -34.5592 -58.4156 North  Level Estimated
08:43AM -34.5592 -58.4156 North  Level Estimated
08:44AM -34.5592 -58.4156 North  Level Estimated
08:45AM -34.5592 -58.4156 North  Level Estimated
08:46AM -34.5592 -58.4156 North  Level Estimated